Andalusia, AL (36420)

12:19 AM CST on February 08, 2016 (GMT -0600)
Chigger Hill off Moore Rd | | Change Station
CLOSE
Current Station
Personal Weather Station
Location: Andalusia, AL
Elevation: 280 ft
Nearby Weather Stations
Active Advisory: Wind Advisory

Elev 280 ft 31.25 °N, 86.50 °W | Updated 19 seconds ago

Clear
Clear
41.1 °F
Feels Like 41 °F
N
0.0
Wind Variable Wind from West
Gusts 0.0 mph

Today
High -- | Low -- °F
--% Chance of Precip.
Yesterday
High -- | Low -- °F
Precip. -- in
Pressure 30.07 in
Visibility 10.0 miles
Clouds Clear
Windchill 41 °F
Dew Point 32 °F
Humidity 69%
Rainfall 0.00 in
Snow Depth Not available.
6:34 AM 5:27 PM
Waning Crescent, 0% visible
METAR K79J 080556Z AUTO 29005KT 10SM CLR 08/M01 A3007 RMK AO2 SLP182 T00831011 10128 20067 58004
Pressure 30.07 in
Visibility 10.0 miles
Clouds Clear
Windchill 41 °F
Dew Point 32 °F
Humidity 69%
Rainfall 0.00 in
Snow Depth Not available.
6:34 AM 5:27 PM
Waning Crescent, 0% visible
METAR K79J 080556Z AUTO 29005KT 10SM CLR 08/M01 A3007 RMK AO2 SLP182 T00831011 10128 20067 58004

10-Day Weather Forecast

Almanac

Astronomy

Feb. 08, 2016 Rise Set
Actual Time
Civil Twilight
Nautical Twilight
Astronomical Twilight
Moon
Length of Visible Light
Length of Day
Tomorrow will be .
, % of the Moon is Illuminated

Today's Extremes

State Highs State Lows

Community

WunderPhotos

Upload Photos

1,891,393 photos uploaded!

WunderBlog® & News

Nearby

Air Quality

  Air Quality AQ Index Pollutant
Not available.

Snow Depth

Station Depth Elevation

Earthquake Activity

City Distance Mag. Time & Date
Minimum magnitude displayed is 2.5.

Coastal Water Temperatures

Place Temperature

Stations

Nearby Weather Stations

Station Location Temp. Windchill Dew Point Humidity Wind Precip. Elev Updated Type
                   

Watches & Warnings

Wind Advisory
Issued: 10:35 PM CST Feb. 7, 2016 – National Weather Service

... Wind Advisory remains in effect from noon to 6 PM CST Monday...

* timing... Monday afternoon.

* Winds... northwest and increasing to 20 to 25 mph with frequent
higher gusts in excess of 30 mph.

Precautionary/preparedness actions...

A Wind Advisory means that winds of 30 to 39 mph are expected.
Winds this strong can make driving difficult... especially for high
profile vehicles. Use extra caution.